sensor_id;sensor_type;location;lat;lon;timestamp;temperature;humidity
10433;DHT22;5263;48.680;9.004;2023-03-13T00:00:34;8.60;99.90
10433;DHT22;5263;48.680;9.004;2023-03-13T00:02:59;8.60;99.90
10433;DHT22;5263;48.680;9.004;2023-03-13T00:05:25;8.40;99.90
10433;DHT22;5263;48.680;9.004;2023-03-13T00:07:51;8.60;99.90
10433;DHT22;5263;48.680;9.004;2023-03-13T00:10:16;8.40;99.90
10433;DHT22;5263;48.680;9.004;2023-03-13T00:12:42;8.40;99.90
10433;DHT22;5263;48.680;9.004;2023-03-13T00:15:08;8.40;99.90
10433;DHT22;5263;48.680;9.004;2023-03-13T00:17:33;8.40;99.90
10433;DHT22;5263;48.680;9.004;2023-03-13T00:19:59;8.40;99.90
10433;DHT22;5263;48.680;9.004;2023-03-13T00:22:25;8.50;99.90
10433;DHT22;5263;48.680;9.004;2023-03-13T00:24:51;8.50;99.90
10433;DHT22;5263;48.680;9.004;2023-03-13T00:27:17;8.50;99.90
10433;DHT22;5263;48.680;9.004;2023-03-13T00:29:42;8.80;99.90
10433;DHT22;5263;48.680;9.004;2023-03-13T00:32:08;8.70;99.90
10433;DHT22;5263;48.680;9.004;2023-03-13T00:34:33;8.60;99.90
10433;DHT22;5263;48.680;9.004;2023-03-13T00:36:59;8.50;99.90
10433;DHT22;5263;48.680;9.004;2023-03-13T00:39:24;8.70;99.90
10433;DHT22;5263;48.680;9.004;2023-03-13T00:41:50;8.70;99.90
10433;DHT22;5263;48.680;9.004;2023-03-13T00:44:15;8.70;99.90
10433;DHT22;5263;48.680;9.004;2023-03-13T00:46:41;8.80;99.90
10433;DHT22;5263;48.680;9.004;2023-03-13T00:49:06;8.80;99.90
10433;DHT22;5263;48.680;9.004;2023-03-13T00:51:32;8.90;99.90
10433;DHT22;5263;48.680;9.004;2023-03-13T00:53:58;8.80;99.90
10433;DHT22;5263;48.680;9.004;2023-03-13T00:56:26;8.90;99.90
10433;DHT22;5263;48.680;9.004;2023-03-13T00:58:52;8.90;99.90
10433;DHT22;5263;48.680;9.004;2023-03-13T01:01:26;8.90;99.90
10433;DHT22;5263;48.680;9.004;2023-03-13T01:03:56;9.00;99.90
10433;DHT22;5263;48.680;9.004;2023-03-13T01:06:25;8.90;99.90
10433;DHT22;5263;48.680;9.004;2023-03-13T01:08:51;8.90;99.90
10433;DHT22;5263;48.680;9.004;2023-03-13T01:11:25;8.90;99.90
10433;DHT22;5263;48.680;9.004;2023-03-13T01:13:56;8.80;99.90
10433;DHT22;5263;48.680;9.004;2023-03-13T01:16:22;8.80;99.90
10433;DHT22;5263;48.680;9.004;2023-03-13T01:18:51;8.80;99.90
10433;DHT22;5263;48.680;9.004;2023-03-13T01:21:18;8.80;99.90
10433;DHT22;5263;48.680;9.004;2023-03-13T01:23:45;8.70;99.90
10433;DHT22;5263;48.680;9.004;2023-03-13T01:26:11;9.00;99.90
10433;DHT22;5263;48.680;9.004;2023-03-13T01:28:37;8.90;99.90
10433;DHT22;5263;48.680;9.004;2023-03-13T01:31:12;8.90;99.90
10433;DHT22;5263;48.680;9.004;2023-03-13T01:33:38;8.80;99.90
10433;DHT22;5263;48.680;9.004;2023-03-13T01:36:03;8.90;99.90
10433;DHT22;5263;48.680;9.004;2023-03-13T01:38:29;8.80;99.90
10433;DHT22;5263;48.680;9.004;2023-03-13T01:40:54;8.80;99.90
10433;DHT22;5263;48.680;9.004;2023-03-13T01:43:26;8.80;99.90
10433;DHT22;5263;48.680;9.004;2023-03-13T01:48:51;8.80;99.90
10433;DHT22;5263;48.680;9.004;2023-03-13T01:53:49;8.80;99.90
10433;DHT22;5263;48.680;9.004;2023-03-13T01:56:28;8.80;99.90
10433;DHT22;5263;48.680;9.004;2023-03-13T01:58:57;8.80;99.90
10433;DHT22;5263;48.680;9.004;2023-03-13T02:01:23;8.80;99.90
10433;DHT22;5263;48.680;9.004;2023-03-13T02:03:50;8.80;99.90
10433;DHT22;5263;48.680;9.004;2023-03-13T02:06:17;8.70;99.90
10433;DHT22;5263;48.680;9.004;2023-03-13T02:08:55;8.80;99.90
10433;DHT22;5263;48.680;9.004;2023-03-13T02:11:36;8.80;99.90
10433;DHT22;5263;48.680;9.004;2023-03-13T02:14:05;8.80;99.90
10433;DHT22;5263;48.680;9.004;2023-03-13T02:16:33;8.80;99.90
10433;DHT22;5263;48.680;9.004;2023-03-13T02:19:00;8.90;99.90
10433;DHT22;5263;48.680;9.004;2023-03-13T02:21:42;8.90;99.90
10433;DHT22;5263;48.680;9.004;2023-03-13T02:24:35;9.00;99.90
10433;DHT22;5263;48.680;9.004;2023-03-13T02:27:05;9.10;99.90
10433;DHT22;5263;48.680;9.004;2023-03-13T02:29:31;9.10;99.90
10433;DHT22;5263;48.680;9.004;2023-03-13T02:31:57;9.20;99.90
10433;DHT22;5263;48.680;9.004;2023-03-13T02:34:28;9.20;99.90
10433;DHT22;5263;48.680;9.004;2023-03-13T02:36:55;9.30;99.90
10433;DHT22;5263;48.680;9.004;2023-03-13T02:39:23;9.30;99.90
10433;DHT22;5263;48.680;9.004;2023-03-13T02:41:50;9.30;99.90
10433;DHT22;5263;48.680;9.004;2023-03-13T02:44:17;9.40;99.90
10433;DHT22;5263;48.680;9.004;2023-03-13T02:46:48;9.40;99.90
10433;DHT22;5263;48.680;9.004;2023-03-13T02:49:26;9.40;99.90
10433;DHT22;5263;48.680;9.004;2023-03-13T02:51:54;9.40;99.90
10433;DHT22;5263;48.680;9.004;2023-03-13T02:54:23;9.40;99.90
10433;DHT22;5263;48.680;9.004;2023-03-13T02:56:58;9.30;99.90
10433;DHT22;5263;48.680;9.004;2023-03-13T02:59:25;9.20;99.90
10433;DHT22;5263;48.680;9.004;2023-03-13T03:01:51;9.40;99.90
10433;DHT22;5263;48.680;9.004;2023-03-13T03:04:18;9.40;99.90
10433;DHT22;5263;48.680;9.004;2023-03-13T03:06:45;9.40;99.90
10433;DHT22;5263;48.680;9.004;2023-03-13T03:09:11;9.40;99.90
10433;DHT22;5263;48.680;9.004;2023-03-13T03:11:36;9.40;99.90
10433;DHT22;5263;48.680;9.004;2023-03-13T03:14:03;9.30;99.90
10433;DHT22;5263;48.680;9.004;2023-03-13T03:16:29;9.40;99.90
10433;DHT22;5263;48.680;9.004;2023-03-13T03:18:54;9.20;99.90
10433;DHT22;5263;48.680;9.004;2023-03-13T03:21:20;9.40;99.90
10433;DHT22;5263;48.680;9.004;2023-03-13T03:23:46;9.40;99.90
10433;DHT22;5263;48.680;9.004;2023-03-13T03:26:12;9.30;99.90
10433;DHT22;5263;48.680;9.004;2023-03-13T03:28:38;9.30;99.90
10433;DHT22;5263;48.680;9.004;2023-03-13T03:31:04;9.40;99.90
10433;DHT22;5263;48.680;9.004;2023-03-13T03:33:30;9.40;99.90
10433;DHT22;5263;48.680;9.004;2023-03-13T03:36:05;9.40;99.90
10433;DHT22;5263;48.680;9.004;2023-03-13T03:38:31;9.50;99.90
10433;DHT22;5263;48.680;9.004;2023-03-13T03:40:57;9.60;99.90
10433;DHT22;5263;48.680;9.004;2023-03-13T03:43:23;9.70;99.90
10433;DHT22;5263;48.680;9.004;2023-03-13T03:45:50;9.80;99.90
10433;DHT22;5263;48.680;9.004;2023-03-13T03:48:15;9.80;99.90
10433;DHT22;5263;48.680;9.004;2023-03-13T03:50:41;10.10;99.90
10433;DHT22;5263;48.680;9.004;2023-03-13T03:53:07;10.10;99.90
10433;DHT22;5263;48.680;9.004;2023-03-13T03:55:33;10.30;99.90
10433;DHT22;5263;48.680;9.004;2023-03-13T03:57:59;10.40;99.90
10433;DHT22;5263;48.680;9.004;2023-03-13T04:00:25;10.40;99.90
10433;DHT22;5263;48.680;9.004;2023-03-13T04:02:52;10.50;99.90
10433;DHT22;5263;48.680;9.004;2023-03-13T04:05:18;10.60;99.90
10433;DHT22;5263;48.680;9.004;2023-03-13T04:07:44;10.60;99.90
10433;DHT22;5263;48.680;9.004;2023-03-13T04:10:10;10.70;99.90
10433;DHT22;5263;48.680;9.004;2023-03-13T04:12:36;10.70;99.90
10433;DHT22;5263;48.680;9.004;2023-03-13T04:15:02;10.70;99.90
10433;DHT22;5263;48.680;9.004;2023-03-13T04:17:27;10.70;99.90
10433;DHT22;5263;48.680;9.004;2023-03-13T04:19:53;10.70;99.90
10433;DHT22;5263;48.680;9.004;2023-03-13T04:22:19;10.70;99.90
10433;DHT22;5263;48.680;9.004;2023-03-13T04:24:44;10.60;99.90
10433;DHT22;5263;48.680;9.004;2023-03-13T04:27:10;10.70;99.90
10433;DHT22;5263;48.680;9.004;2023-03-13T04:29:36;10.70;99.90
10433;DHT22;5263;48.680;9.004;2023-03-13T04:32:01;10.70;99.90
10433;DHT22;5263;48.680;9.004;2023-03-13T04:34:27;10.70;99.90
10433;DHT22;5263;48.680;9.004;2023-03-13T04:36:52;10.60;99.90
10433;DHT22;5263;48.680;9.004;2023-03-13T04:39:19;10.70;99.90
10433;DHT22;5263;48.680;9.004;2023-03-13T04:41:52;10.60;99.90
10433;DHT22;5263;48.680;9.004;2023-03-13T04:44:18;10.60;99.90
10433;DHT22;5263;48.680;9.004;2023-03-13T04:46:44;10.50;99.90
10433;DHT22;5263;48.680;9.004;2023-03-13T04:49:10;10.50;99.90
10433;DHT22;5263;48.680;9.004;2023-03-13T04:51:35;10.50;99.90
10433;DHT22;5263;48.680;9.004;2023-03-13T04:54:01;10.50;99.90
10433;DHT22;5263;48.680;9.004;2023-03-13T04:56:27;10.50;99.90
10433;DHT22;5263;48.680;9.004;2023-03-13T04:58:53;10.40;99.90
10433;DHT22;5263;48.680;9.004;2023-03-13T05:01:19;10.50;99.90
10433;DHT22;5263;48.680;9.004;2023-03-13T05:03:45;10.40;99.90
10433;DHT22;5263;48.680;9.004;2023-03-13T05:06:11;10.30;99.90
10433;DHT22;5263;48.680;9.004;2023-03-13T05:08:37;10.40;99.90
10433;DHT22;5263;48.680;9.004;2023-03-13T05:11:03;10.40;99.90
10433;DHT22;5263;48.680;9.004;2023-03-13T05:13:29;10.40;99.90
10433;DHT22;5263;48.680;9.004;2023-03-13T05:15:55;10.50;99.90
10433;DHT22;5263;48.680;9.004;2023-03-13T05:18:21;10.50;99.90
10433;DHT22;5263;48.680;9.004;2023-03-13T05:20:46;10.60;99.90
10433;DHT22;5263;48.680;9.004;2023-03-13T05:23:12;10.50;99.90
10433;DHT22;5263;48.680;9.004;2023-03-13T05:25:38;10.60;99.90
10433;DHT22;5263;48.680;9.004;2023-03-13T05:28:04;10.60;99.90
10433;DHT22;5263;48.680;9.004;2023-03-13T05:30:29;10.60;99.90
10433;DHT22;5263;48.680;9.004;2023-03-13T05:32:55;10.70;99.90
10433;DHT22;5263;48.680;9.004;2023-03-13T05:35:21;10.70;99.90
10433;DHT22;5263;48.680;9.004;2023-03-13T05:37:46;10.70;99.90
10433;DHT22;5263;48.680;9.004;2023-03-13T05:40:12;10.70;99.90
10433;DHT22;5263;48.680;9.004;2023-03-13T05:42:38;10.80;99.90
10433;DHT22;5263;48.680;9.004;2023-03-13T05:45:04;10.80;99.90
10433;DHT22;5263;48.680;9.004;2023-03-13T05:47:30;10.90;99.90
10433;DHT22;5263;48.680;9.004;2023-03-13T05:49:56;10.90;99.90
10433;DHT22;5263;48.680;9.004;2023-03-13T05:52:21;11.00;99.90
10433;DHT22;5263;48.680;9.004;2023-03-13T05:54:47;11.00;99.90
10433;DHT22;5263;48.680;9.004;2023-03-13T05:57:13;10.90;99.90
10433;DHT22;5263;48.680;9.004;2023-03-13T05:59:40;11.00;99.90
10433;DHT22;5263;48.680;9.004;2023-03-13T06:02:05;11.00;99.90
10433;DHT22;5263;48.680;9.004;2023-03-13T06:04:31;11.00;99.90
10433;DHT22;5263;48.680;9.004;2023-03-13T06:06:56;11.00;99.90
10433;DHT22;5263;48.680;9.004;2023-03-13T06:09:22;11.10;99.90
10433;DHT22;5263;48.680;9.004;2023-03-13T06:11:48;11.10;99.90
10433;DHT22;5263;48.680;9.004;2023-03-13T06:14:13;11.10;99.90
10433;DHT22;5263;48.680;9.004;2023-03-13T06:16:39;11.00;99.90
10433;DHT22;5263;48.680;9.004;2023-03-13T06:19:05;11.00;99.90
10433;DHT22;5263;48.680;9.004;2023-03-13T06:21:30;11.00;99.90
10433;DHT22;5263;48.680;9.004;2023-03-13T06:23:56;11.00;99.90
10433;DHT22;5263;48.680;9.004;2023-03-13T06:26:21;10.90;99.90
10433;DHT22;5263;48.680;9.004;2023-03-13T06:28:49;10.90;99.90
10433;DHT22;5263;48.680;9.004;2023-03-13T06:31:14;11.00;99.90
10433;DHT22;5263;48.680;9.004;2023-03-13T06:33:40;11.10;99.90
10433;DHT22;5263;48.680;9.004;2023-03-13T06:36:06;11.20;99.90
10433;DHT22;5263;48.680;9.004;2023-03-13T06:38:32;11.20;99.90
10433;DHT22;5263;48.680;9.004;2023-03-13T06:40:58;11.20;99.90
10433;DHT22;5263;48.680;9.004;2023-03-13T06:43:24;11.20;99.90
10433;DHT22;5263;48.680;9.004;2023-03-13T06:45:50;11.20;99.90
10433;DHT22;5263;48.680;9.004;2023-03-13T06:48:16;11.20;99.90
10433;DHT22;5263;48.680;9.004;2023-03-13T06:50:42;11.20;99.90
10433;DHT22;5263;48.680;9.004;2023-03-13T06:53:14;11.20;99.90
10433;DHT22;5263;48.680;9.004;2023-03-13T06:55:41;11.20;99.90
10433;DHT22;5263;48.680;9.004;2023-03-13T06:58:06;11.10;99.90
10433;DHT22;5263;48.680;9.004;2023-03-13T07:00:32;11.20;99.90
10433;DHT22;5263;48.680;9.004;2023-03-13T07:02:58;11.10;99.90
10433;DHT22;5263;48.680;9.004;2023-03-13T07:05:24;11.10;99.90
10433;DHT22;5263;48.680;9.004;2023-03-13T07:07:50;11.20;99.90
10433;DHT22;5263;48.680;9.004;2023-03-13T07:10:15;11.20;99.90
10433;DHT22;5263;48.680;9.004;2023-03-13T07:12:41;11.20;99.90
10433;DHT22;5263;48.680;9.004;2023-03-13T07:15:08;11.10;99.90
10433;DHT22;5263;48.680;9.004;2023-03-13T07:17:34;11.20;99.90
10433;DHT22;5263;48.680;9.004;2023-03-13T07:20:00;11.20;99.90
10433;DHT22;5263;48.680;9.004;2023-03-13T07:22:25;11.30;99.90
10433;DHT22;5263;48.680;9.004;2023-03-13T07:24:51;11.30;99.90
10433;DHT22;5263;48.680;9.004;2023-03-13T07:27:17;11.30;99.90
10433;DHT22;5263;48.680;9.004;2023-03-13T07:29:45;11.40;99.90
10433;DHT22;5263;48.680;9.004;2023-03-13T07:32:10;11.40;99.90
10433;DHT22;5263;48.680;9.004;2023-03-13T07:34:36;11.40;99.90
10433;DHT22;5263;48.680;9.004;2023-03-13T07:37:02;11.40;99.90
10433;DHT22;5263;48.680;9.004;2023-03-13T07:39:27;11.40;99.90
10433;DHT22;5263;48.680;9.004;2023-03-13T07:41:53;11.50;99.90
10433;DHT22;5263;48.680;9.004;2023-03-13T07:44:18;11.50;99.90
10433;DHT22;5263;48.680;9.004;2023-03-13T07:46:44;11.60;99.90
10433;DHT22;5263;48.680;9.004;2023-03-13T07:49:12;11.60;99.90
10433;DHT22;5263;48.680;9.004;2023-03-13T07:51:38;11.60;99.90
10433;DHT22;5263;48.680;9.004;2023-03-13T07:54:03;11.60;99.90
10433;DHT22;5263;48.680;9.004;2023-03-13T07:56:29;11.60;99.90
10433;DHT22;5263;48.680;9.004;2023-03-13T07:58:55;11.70;99.90
10433;DHT22;5263;48.680;9.004;2023-03-13T08:01:25;11.70;99.90
10433;DHT22;5263;48.680;9.004;2023-03-13T08:03:52;11.70;99.90
10433;DHT22;5263;48.680;9.004;2023-03-13T08:06:20;11.80;99.90
10433;DHT22;5263;48.680;9.004;2023-03-13T08:08:48;11.80;99.90
10433;DHT22;5263;48.680;9.004;2023-03-13T08:11:15;11.90;99.90
10433;DHT22;5263;48.680;9.004;2023-03-13T08:13:42;12.00;99.90
10433;DHT22;5263;48.680;9.004;2023-03-13T08:18:39;12.20;99.90
10433;DHT22;5263;48.680;9.004;2023-03-13T08:21:14;12.30;99.90
10433;DHT22;5263;48.680;9.004;2023-03-13T08:23:40;12.30;99.90
10433;DHT22;5263;48.680;9.004;2023-03-13T08:26:11;12.40;99.90
10433;DHT22;5263;48.680;9.004;2023-03-13T08:28:38;12.50;99.90
10433;DHT22;5263;48.680;9.004;2023-03-13T08:31:13;12.60;99.90
10433;DHT22;5263;48.680;9.004;2023-03-13T08:33:40;12.50;99.90
10433;DHT22;5263;48.680;9.004;2023-03-13T08:36:22;12.50;99.90
10433;DHT22;5263;48.680;9.004;2023-03-13T08:38:50;12.50;99.90
10433;DHT22;5263;48.680;9.004;2023-03-13T08:41:18;12.40;99.90
10433;DHT22;5263;48.680;9.004;2023-03-13T08:43:45;12.40;99.90
10433;DHT22;5263;48.680;9.004;2023-03-13T08:46:11;12.40;99.90
10433;DHT22;5263;48.680;9.004;2023-03-13T08:48:37;12.50;99.90
10433;DHT22;5263;48.680;9.004;2023-03-13T08:51:11;12.40;99.90
10433;DHT22;5263;48.680;9.004;2023-03-13T08:53:38;12.40;99.90
10433;DHT22;5263;48.680;9.004;2023-03-13T08:56:05;12.50;99.90
10433;DHT22;5263;48.680;9.004;2023-03-13T08:58:31;12.60;99.90
10433;DHT22;5263;48.680;9.004;2023-03-13T09:01:02;12.80;99.90
10433;DHT22;5263;48.680;9.004;2023-03-13T09:03:27;12.70;99.90
10433;DHT22;5263;48.680;9.004;2023-03-13T09:05:55;12.80;99.90
10433;DHT22;5263;48.680;9.004;2023-03-13T09:08:20;12.80;99.90
10433;DHT22;5263;48.680;9.004;2023-03-13T09:10:46;12.70;99.90
10433;DHT22;5263;48.680;9.004;2023-03-13T09:13:12;12.70;99.90
10433;DHT22;5263;48.680;9.004;2023-03-13T09:15:37;12.80;99.90
10433;DHT22;5263;48.680;9.004;2023-03-13T09:18:03;12.80;99.90
10433;DHT22;5263;48.680;9.004;2023-03-13T09:20:29;13.00;99.90
10433;DHT22;5263;48.680;9.004;2023-03-13T09:22:54;12.90;99.90
10433;DHT22;5263;48.680;9.004;2023-03-13T09:25:20;13.10;99.90
10433;DHT22;5263;48.680;9.004;2023-03-13T09:27:45;13.00;99.90
10433;DHT22;5263;48.680;9.004;2023-03-13T09:30:11;13.10;99.90
10433;DHT22;5263;48.680;9.004;2023-03-13T09:32:37;13.10;99.90
10433;DHT22;5263;48.680;9.004;2023-03-13T09:35:02;13.00;99.90
10433;DHT22;5263;48.680;9.004;2023-03-13T09:37:28;13.00;99.90
10433;DHT22;5263;48.680;9.004;2023-03-13T09:39:54;13.10;99.90
10433;DHT22;5263;48.680;9.004;2023-03-13T09:42:28;13.20;99.90
10433;DHT22;5263;48.680;9.004;2023-03-13T09:45:07;13.50;99.90
10433;DHT22;5263;48.680;9.004;2023-03-13T09:50:22;13.80;99.90
10433;DHT22;5263;48.680;9.004;2023-03-13T09:52:54;14.30;99.90
10433;DHT22;5263;48.680;9.004;2023-03-13T09:55:29;14.80;99.90
10433;DHT22;5263;48.680;9.004;2023-03-13T09:57:59;14.80;99.90
10433;DHT22;5263;48.680;9.004;2023-03-13T10:02:56;15.00;99.90
10433;DHT22;5263;48.680;9.004;2023-03-13T10:05:27;16.30;99.90
10433;DHT22;5263;48.680;9.004;2023-03-13T10:08:37;16.20;99.90
10433;DHT22;5263;48.680;9.004;2023-03-13T10:13:41;17.70;99.90
10433;DHT22;5263;48.680;9.004;2023-03-13T10:16:13;17.60;99.90
10433;DHT22;5263;48.680;9.004;2023-03-13T10:18:44;17.60;99.90
10433;DHT22;5263;48.680;9.004;2023-03-13T10:21:17;17.90;99.90
10433;DHT22;5263;48.680;9.004;2023-03-13T10:26:31;19.00;99.90
10433;DHT22;5263;48.680;9.004;2023-03-13T10:29:11;19.80;99.90
10433;DHT22;5263;48.680;9.004;2023-03-13T10:31:45;20.00;99.90
10433;DHT22;5263;48.680;9.004;2023-03-13T10:34:14;19.90;99.90
10433;DHT22;5263;48.680;9.004;2023-03-13T10:36:46;18.10;99.90
10433;DHT22;5263;48.680;9.004;2023-03-13T10:39:15;17.30;99.90
10433;DHT22;5263;48.680;9.004;2023-03-13T10:41:41;17.10;99.90
10433;DHT22;5263;48.680;9.004;2023-03-13T10:44:18;17.10;99.90
10433;DHT22;5263;48.680;9.004;2023-03-13T10:46:47;17.00;99.90
10433;DHT22;5263;48.680;9.004;2023-03-13T10:49:21;17.40;99.90
10433;DHT22;5263;48.680;9.004;2023-03-13T10:51:53;17.60;99.90
10433;DHT22;5263;48.680;9.004;2023-03-13T10:57:32;17.20;99.90
10433;DHT22;5263;48.680;9.004;2023-03-13T10:59:59;18.20;99.90
10433;DHT22;5263;48.680;9.004;2023-03-13T11:02:33;19.00;99.90
10433;DHT22;5263;48.680;9.004;2023-03-13T11:05:00;19.90;99.90
10433;DHT22;5263;48.680;9.004;2023-03-13T11:07:32;20.20;99.90
10433;DHT22;5263;48.680;9.004;2023-03-13T11:10:02;20.00;99.90
10433;DHT22;5263;48.680;9.004;2023-03-13T11:12:33;20.00;99.90
10433;DHT22;5263;48.680;9.004;2023-03-13T11:15:00;21.60;99.90
10433;DHT22;5263;48.680;9.004;2023-03-13T11:17:33;21.50;99.90
10433;DHT22;5263;48.680;9.004;2023-03-13T11:20:26;19.30;99.90
10433;DHT22;5263;48.680;9.004;2023-03-13T11:25:38;18.70;99.90
10433;DHT22;5263;48.680;9.004;2023-03-13T11:36:05;21.50;99.90
10433;DHT22;5263;48.680;9.004;2023-03-13T11:38:38;23.00;99.90
10433;DHT22;5263;48.680;9.004;2023-03-13T11:41:21;22.90;99.90
10433;DHT22;5263;48.680;9.004;2023-03-13T11:49:22;24.40;98.70
10433;DHT22;5263;48.680;9.004;2023-03-13T11:52:11;23.50;98.20
10433;DHT22;5263;48.680;9.004;2023-03-13T11:57:31;22.10;99.00
10433;DHT22;5263;48.680;9.004;2023-03-13T12:02:39;22.30;98.00
10433;DHT22;5263;48.680;9.004;2023-03-13T12:05:09;21.80;99.80
10433;DHT22;5263;48.680;9.004;2023-03-13T12:07:57;22.30;98.70
10433;DHT22;5263;48.680;9.004;2023-03-13T12:13:04;20.10;99.90
10433;DHT22;5263;48.680;9.004;2023-03-13T12:15:39;20.80;99.90
10433;DHT22;5263;48.680;9.004;2023-03-13T12:18:14;21.80;99.90
10433;DHT22;5263;48.680;9.004;2023-03-13T12:21:00;22.20;99.50
10433;DHT22;5263;48.680;9.004;2023-03-13T12:23:43;22.30;98.50
10433;DHT22;5263;48.680;9.004;2023-03-13T12:26:15;24.30;95.60
10433;DHT22;5263;48.680;9.004;2023-03-13T12:31:53;23.70;95.70
10433;DHT22;5263;48.680;9.004;2023-03-13T12:34:28;22.80;94.50
10433;DHT22;5263;48.680;9.004;2023-03-13T12:37:10;21.80;97.10
10433;DHT22;5263;48.680;9.004;2023-03-13T12:44:56;24.20;94.30
10433;DHT22;5263;48.680;9.004;2023-03-13T12:50:50;24.60;93.50
10433;DHT22;5263;48.680;9.004;2023-03-13T12:53:43;24.20;92.30
10433;DHT22;5263;48.680;9.004;2023-03-13T12:59:03;24.90;90.10
10433;DHT22;5263;48.680;9.004;2023-03-13T13:01:33;24.00;90.10
10433;DHT22;5263;48.680;9.004;2023-03-13T13:04:04;24.00;90.40
10433;DHT22;5263;48.680;9.004;2023-03-13T13:07:04;23.90;90.80
10433;DHT22;5263;48.680;9.004;2023-03-13T13:09:35;24.70;88.80
10433;DHT22;5263;48.680;9.004;2023-03-13T13:12:18;23.80;90.50
10433;DHT22;5263;48.680;9.004;2023-03-13T13:19:55;22.40;92.40
10433;DHT22;5263;48.680;9.004;2023-03-13T13:27:50;20.70;95.30
10433;DHT22;5263;48.680;9.004;2023-03-13T13:32:52;20.60;95.40
10433;DHT22;5263;48.680;9.004;2023-03-13T13:37:44;20.60;95.40
10433;DHT22;5263;48.680;9.004;2023-03-13T13:42:46;20.10;95.40
10433;DHT22;5263;48.680;9.004;2023-03-13T13:47:43;19.80;96.70
10433;DHT22;5263;48.680;9.004;2023-03-13T13:50:20;20.40;95.70
10433;DHT22;5263;48.680;9.004;2023-03-13T13:52:47;20.60;95.50
10433;DHT22;5263;48.680;9.004;2023-03-13T13:58:13;22.00;93.80
10433;DHT22;5263;48.680;9.004;2023-03-13T14:01:13;21.30;93.60
10433;DHT22;5263;48.680;9.004;2023-03-13T14:03:40;21.20;94.10
10433;DHT22;5263;48.680;9.004;2023-03-13T14:06:28;20.30;95.70
10433;DHT22;5263;48.680;9.004;2023-03-13T14:09:08;20.80;95.50
10433;DHT22;5263;48.680;9.004;2023-03-13T14:11:37;20.90;95.00
10433;DHT22;5263;48.680;9.004;2023-03-13T14:14:18;20.80;93.30
10433;DHT22;5263;48.680;9.004;2023-03-13T14:16:49;20.60;93.50
10433;DHT22;5263;48.680;9.004;2023-03-13T14:21:49;20.10;94.10
10433;DHT22;5263;48.680;9.004;2023-03-13T14:24:15;20.20;93.90
10433;DHT22;5263;48.680;9.004;2023-03-13T14:26:44;20.90;93.40
10433;DHT22;5263;48.680;9.004;2023-03-13T14:29:16;21.20;92.70
10433;DHT22;5263;48.680;9.004;2023-03-13T14:31:50;21.50;92.10
10433;DHT22;5263;48.680;9.004;2023-03-13T14:34:16;20.90;92.50
10433;DHT22;5263;48.680;9.004;2023-03-13T14:36:58;20.90;93.00
10433;DHT22;5263;48.680;9.004;2023-03-13T14:39:43;21.10;92.60
10433;DHT22;5263;48.680;9.004;2023-03-13T14:42:15;21.20;93.10
10433;DHT22;5263;48.680;9.004;2023-03-13T14:44:43;21.40;92.30
10433;DHT22;5263;48.680;9.004;2023-03-13T14:47:28;21.50;92.40
10433;DHT22;5263;48.680;9.004;2023-03-13T14:50:00;21.20;92.70
10433;DHT22;5263;48.680;9.004;2023-03-13T14:52:29;21.20;93.50
10433;DHT22;5263;48.680;9.004;2023-03-13T14:55:01;22.20;92.00
10433;DHT22;5263;48.680;9.004;2023-03-13T14:57:29;22.60;91.40
10433;DHT22;5263;48.680;9.004;2023-03-13T15:00:34;22.20;91.90
10433;DHT22;5263;48.680;9.004;2023-03-13T15:05:48;22.70;92.40
10433;DHT22;5263;48.680;9.004;2023-03-13T15:08:17;23.10;91.10
10433;DHT22;5263;48.680;9.004;2023-03-13T15:10:43;22.50;91.40
10433;DHT22;5263;48.680;9.004;2023-03-13T15:13:22;22.10;91.90
10433;DHT22;5263;48.680;9.004;2023-03-13T15:15:49;21.60;92.60
10433;DHT22;5263;48.680;9.004;2023-03-13T15:18:24;21.20;93.30
10433;DHT22;5263;48.680;9.004;2023-03-13T15:20:56;22.20;93.10
10433;DHT22;5263;48.680;9.004;2023-03-13T15:23:22;23.20;92.00
10433;DHT22;5263;48.680;9.004;2023-03-13T15:25:48;23.00;91.70
10433;DHT22;5263;48.680;9.004;2023-03-13T15:28:23;22.50;91.50
10433;DHT22;5263;48.680;9.004;2023-03-13T15:30:50;22.10;91.50
10433;DHT22;5263;48.680;9.004;2023-03-13T15:33:21;22.10;91.60
10433;DHT22;5263;48.680;9.004;2023-03-13T15:35:47;21.90;92.00
10433;DHT22;5263;48.680;9.004;2023-03-13T15:38:18;21.50;92.20
10433;DHT22;5263;48.680;9.004;2023-03-13T15:40:44;21.10;93.00
10433;DHT22;5263;48.680;9.004;2023-03-13T15:43:11;21.20;93.20
10433;DHT22;5263;48.680;9.004;2023-03-13T15:45:39;21.70;93.30
10433;DHT22;5263;48.680;9.004;2023-03-13T15:48:17;22.30;92.50
10433;DHT22;5263;48.680;9.004;2023-03-13T15:50:45;22.50;92.30
10433;DHT22;5263;48.680;9.004;2023-03-13T15:53:22;22.10;91.90
10433;DHT22;5263;48.680;9.004;2023-03-13T15:55:49;21.90;92.10
10433;DHT22;5263;48.680;9.004;2023-03-13T15:58:16;21.50;92.40
10433;DHT22;5263;48.680;9.004;2023-03-13T16:00:42;21.40;92.80
10433;DHT22;5263;48.680;9.004;2023-03-13T16:03:20;21.20;93.20
10433;DHT22;5263;48.680;9.004;2023-03-13T16:05:47;21.00;93.40
10433;DHT22;5263;48.680;9.004;2023-03-13T16:08:25;20.90;93.50
10433;DHT22;5263;48.680;9.004;2023-03-13T16:10:51;20.70;94.40
10433;DHT22;5263;48.680;9.004;2023-03-13T16:13:17;21.00;94.40
10433;DHT22;5263;48.680;9.004;2023-03-13T16:15:44;21.50;94.30
10433;DHT22;5263;48.680;9.004;2023-03-13T16:18:19;21.70;93.80
10433;DHT22;5263;48.680;9.004;2023-03-13T16:20:45;21.00;94.40
10433;DHT22;5263;48.680;9.004;2023-03-13T16:23:11;20.50;95.50
10433;DHT22;5263;48.680;9.004;2023-03-13T16:25:37;20.10;96.40
10433;DHT22;5263;48.680;9.004;2023-03-13T16:28:04;19.90;97.20
10433;DHT22;5263;48.680;9.004;2023-03-13T16:30:32;19.60;97.80
10433;DHT22;5263;48.680;9.004;2023-03-13T16:32:58;19.50;98.00
10433;DHT22;5263;48.680;9.004;2023-03-13T16:35:25;19.30;98.40
10433;DHT22;5263;48.680;9.004;2023-03-13T16:37:55;19.20;98.90
10433;DHT22;5263;48.680;9.004;2023-03-13T16:40:24;19.00;99.50
10433;DHT22;5263;48.680;9.004;2023-03-13T16:42:50;18.80;99.90
10433;DHT22;5263;48.680;9.004;2023-03-13T16:45:16;18.70;99.90
10433;DHT22;5263;48.680;9.004;2023-03-13T16:47:43;18.70;99.90
10433;DHT22;5263;48.680;9.004;2023-03-13T16:50:22;18.50;99.90
10433;DHT22;5263;48.680;9.004;2023-03-13T16:52:49;18.40;99.90
10433;DHT22;5263;48.680;9.004;2023-03-13T16:55:15;18.30;99.90
10433;DHT22;5263;48.680;9.004;2023-03-13T16:57:41;18.40;99.90
10433;DHT22;5263;48.680;9.004;2023-03-13T17:00:18;18.30;99.90
10433;DHT22;5263;48.680;9.004;2023-03-13T17:02:44;18.20;99.90
10433;DHT22;5263;48.680;9.004;2023-03-13T17:05:10;18.10;99.90
10433;DHT22;5263;48.680;9.004;2023-03-13T17:07:40;18.00;99.90
10433;DHT22;5263;48.680;9.004;2023-03-13T17:10:24;18.00;99.90
10433;DHT22;5263;48.680;9.004;2023-03-13T17:12:51;18.00;99.90
10433;DHT22;5263;48.680;9.004;2023-03-13T17:15:17;17.90;99.90
10433;DHT22;5263;48.680;9.004;2023-03-13T17:17:44;17.80;99.90
10433;DHT22;5263;48.680;9.004;2023-03-13T17:20:20;17.70;99.90
10433;DHT22;5263;48.680;9.004;2023-03-13T17:22:45;17.50;99.90
10433;DHT22;5263;48.680;9.004;2023-03-13T17:25:11;17.60;99.90
10433;DHT22;5263;48.680;9.004;2023-03-13T17:27:38;17.40;99.90
10433;DHT22;5263;48.680;9.004;2023-03-13T17:30:28;17.40;99.90